Time;durP1;ratioP1;P1;durP2;ratioP2;P2;SDS_P1;SDS_P2;PMS_P1;PMS_P2;Temp;Humidity;BMP_temperature;BMP_pressure;BME280_temperature;BME280_humidity;BME280_pressure;Samples;Min_cycle;Max_cycle;Signal;HPM_P1;HPM_P2
2022/10/23 00:01:31;;;;;;;3.28;0.50;;;10.20;99.90;;;;;;4790018;29;19932;-58
2022/10/23 00:04:01;;;;;;;16.15;0.75;;;10.20;99.90;;;;;;4776582;29;20581;-56
2022/10/23 00:06:31;;;;;;;0.52;0.35;;;10.20;99.90;;;;;;4804953;29;20248;-58
2022/10/23 00:08:58;;;;;;;3.95;0.55;;;10.20;99.90;;;;;;4790473;29;20045;-56
2022/10/23 00:11:27;;;;;;;0.85;0.47;;;10.10;99.90;;;;;;4791317;29;20056;-58
2022/10/23 00:13:57;;;;;;;5.15;1.15;;;10.10;99.90;;;;;;4778217;29;20121;-57
2022/10/23 00:16:26;;;;;;;1.35;0.40;;;10.10;99.90;;;;;;4791736;29;20049;-56
2022/10/23 00:18:53;;;;;;;3.08;0.52;;;10.10;99.90;;;;;;4790664;29;20102;-56
2022/10/23 00:21:20;;;;;;;2.33;0.50;;;10.00;99.90;;;;;;4773526;29;20205;-58
2022/10/23 00:23:47;;;;;;;5.68;0.82;;;10.10;99.90;;;;;;4790198;29;20593;-58
2022/10/23 00:26:14;;;;;;;1.70;0.50;;;10.00;99.90;;;;;;4774046;29;20597;-56
2022/10/23 00:28:47;;;;;;;16.55;1.92;;;10.00;99.90;;;;;;4790584;29;20311;-57
2022/10/23 00:31:15;;;;;;;7.22;0.73;;;10.00;99.90;;;;;;4803368;29;20153;-56
2022/10/23 00:33:43;;;;;;;3.20;0.35;;;10.00;99.90;;;;;;4788850;29;20064;-58
2022/10/23 00:36:12;;;;;;;5.60;0.70;;;10.00;99.90;;;;;;4789024;29;20571;-57
2022/10/23 00:38:43;;;;;;;8.52;0.70;;;9.90;99.90;;;;;;4772938;29;20053;-58
2022/10/23 00:41:19;;;;;;;3.30;0.70;;;9.90;99.90;;;;;;4804977;29;20045;-57
2022/10/23 00:44:06;;;;;;;1.40;0.32;;;9.90;99.90;;;;;;4788090;29;20045;-57
2022/10/23 00:46:35;;;;;;;4.57;0.50;;;9.90;99.90;;;;;;4804196;29;20704;-57
2022/10/23 00:49:04;;;;;;;5.38;0.68;;;9.90;99.90;;;;;;4791060;29;20575;-56
2022/10/23 00:51:55;;;;;;;5.25;0.50;;;9.90;99.90;;;;;;4790449;29;20160;-56
2022/10/23 00:54:28;;;;;;;0.43;0.30;;;9.90;99.90;;;;;;4795317;29;20053;-57
2022/10/23 00:57:00;;;;;;;3.70;0.43;;;9.90;99.90;;;;;;4803076;29;20961;-57
2022/10/23 00:59:28;;;;;;;1.45;0.45;;;9.90;99.90;;;;;;4771241;29;20228;-57
2022/10/23 01:01:55;;;;;;;3.63;0.68;;;9.90;99.90;;;;;;4787966;29;20385;-58
2022/10/23 01:04:23;;;;;;;4.20;0.38;;;9.90;99.90;;;;;;4803673;29;20056;-57
2022/10/23 01:07:02;;;;;;;0.90;0.50;;;9.90;99.90;;;;;;4791003;29;20149;-56
2022/10/23 01:09:35;;;;;;;1.95;0.52;;;9.90;99.90;;;;;;4803609;29;20049;-57
2022/10/23 01:12:17;;;;;;;2.03;0.47;;;9.80;99.90;;;;;;4789946;29;20206;-56
2022/10/23 01:15:19;;;;;;;8.23;0.95;;;9.80;99.90;;;;;;4787615;29;20061;-55
2022/10/23 01:18:25;;;;;;;25.27;1.42;;;9.80;99.90;;;;;;4757763;29;20160;-59
2022/10/23 01:21:17;;;;;;;7.13;0.88;;;9.80;99.90;;;;;;4789007;29;20129;-57
2022/10/23 01:23:49;;;;;;;6.07;0.90;;;9.70;99.90;;;;;;4788791;29;20057;-57
2022/10/23 01:26:28;;;;;;;1.35;0.65;;;9.70;99.90;;;;;;4803319;29;20160;-58
2022/10/23 01:29:07;;;;;;;6.63;0.75;;;9.70;99.90;;;;;;4788606;29;20291;-58
2022/10/23 01:31:38;;;;;;;1.90;0.40;;;9.70;99.90;;;;;;4771606;29;20050;-58
2022/10/23 01:34:13;;;;;;;0.32;0.32;;;9.60;99.90;;;;;;4788194;29;20220;-58
2022/10/23 01:36:46;;;;;;;4.05;0.40;;;9.60;99.90;;;;;;4772933;29;20053;-58
2022/10/23 01:39:20;;;;;;;1.17;0.30;;;9.60;99.90;;;;;;4789831;29;20045;-58
2022/10/23 01:42:02;;;;;;;4.50;0.35;;;9.60;99.90;;;;;;4789131;29;20264;-59
2022/10/23 01:44:45;;;;;;;0.47;0.40;;;9.60;99.90;;;;;;4802880;29;20042;-57
2022/10/23 01:47:15;;;;;;;5.57;0.50;;;9.60;99.90;;;;;;4771534;29;20161;-59
2022/10/23 01:49:54;;;;;;;14.00;3.10;;;9.60;99.90;;;;;;4786159;29;20485;-58
2022/10/23 01:52:22;;;;;;;0.50;0.30;;;9.50;99.90;;;;;;4786426;29;20053;-58
2022/10/23 01:54:55;;;;;;;9.27;0.77;;;9.50;99.90;;;;;;4772477;29;20379;-56
2022/10/23 01:57:25;;;;;;;3.42;0.40;;;9.50;99.90;;;;;;4771850;29;20165;-57
2022/10/23 01:59:58;;;;;;;0.17;0.17;;;9.50;99.90;;;;;;4799492;29;20053;-56
2022/10/23 02:02:27;;;;;;;3.47;0.60;;;9.50;99.90;;;;;;4789901;29;20225;-57
2022/10/23 02:05:09;;;;;;;3.38;0.65;;;9.40;99.90;;;;;;4803257;29;20952;-57
2022/10/23 02:07:36;;;;;;;3.72;1.13;;;9.40;99.90;;;;;;4803570;29;20891;-56
2022/10/23 02:10:07;;;;;;;4.97;0.55;;;9.40;99.90;;;;;;4778138;29;20046;-57
2022/10/23 02:12:43;;;;;;;7.28;0.40;;;9.30;99.90;;;;;;4775187;29;20301;-57
2022/10/23 02:15:32;;;;;;;3.95;0.70;;;9.30;99.90;;;;;;4793806;29;20045;-57
2022/10/23 02:18:25;;;;;;;5.00;0.52;;;9.30;99.90;;;;;;4792926;29;20280;-57
2022/10/23 02:21:17;;;;;;;7.22;0.80;;;9.30;99.90;;;;;;4791130;29;20166;-56
2022/10/23 02:23:58;;;;;;;0.65;0.38;;;9.30;99.90;;;;;;4792159;29;20370;-57
2022/10/23 02:26:39;;;;;;;1.75;0.68;;;9.30;99.90;;;;;;4792706;29;20041;-58
2022/10/23 02:29:15;;;;;;;0.90;0.50;;;9.30;99.90;;;;;;4792029;29;20198;-57
2022/10/23 02:31:44;;;;;;;2.55;0.45;;;9.30;99.90;;;;;;4781808;29;20049;-58
2022/10/23 02:34:11;;;;;;;2.78;0.50;;;9.30;99.90;;;;;;4791067;29;20053;-57
2022/10/23 02:36:39;;;;;;;4.43;0.50;;;9.40;99.90;;;;;;4793346;29;20056;-57
2022/10/23 02:39:08;;;;;;;4.32;0.60;;;9.40;99.90;;;;;;4791727;29;20057;-57
2022/10/23 02:42:13;;;;;;;3.92;0.60;;;9.40;99.90;;;;;;4791933;29;20274;-56
2022/10/23 02:45:01;;;;;;;1.60;0.60;;;9.40;99.90;;;;;;4807181;29;20053;-56
2022/10/23 02:47:52;;;;;;;6.13;0.50;;;9.40;99.90;;;;;;4807018;29;20038;-57
2022/10/23 02:50:34;;;;;;;2.60;0.57;;;9.50;99.90;;;;;;4793017;29;20049;-57
2022/10/23 02:53:28;;;;;;;1.38;0.30;;;9.50;99.90;;;;;;4792412;29;20045;-57
2022/10/23 02:56:02;;;;;;;0.30;0.30;;;9.50;99.90;;;;;;4791013;29;20475;-57
2022/10/23 02:59:06;;;;;;;2.08;0.50;;;9.50;99.90;;;;;;4775571;29;20637;-55
2022/10/23 03:01:44;;;;;;;2.67;0.60;;;9.50;99.90;;;;;;4769955;29;20050;-57
2022/10/23 03:04:14;;;;;;;0.55;0.40;;;9.50;99.90;;;;;;4789995;29;20048;-57
2022/10/23 03:06:42;;;;;;;5.68;0.60;;;9.50;99.90;;;;;;4773879;29;20615;-58
2022/10/23 03:09:14;;;;;;;9.48;0.52;;;9.50;99.90;;;;;;4807310;29;20046;-58
2022/10/23 03:11:41;;;;;;;1.70;0.77;;;9.50;99.90;;;;;;4792800;29;20041;-57
2022/10/23 03:14:10;;;;;;;0.35;0.30;;;9.50;99.90;;;;;;4791898;29;20045;-57
2022/10/23 03:16:37;;;;;;;5.80;0.60;;;9.50;99.90;;;;;;4793878;29;20552;-56
2022/10/23 03:19:04;;;;;;;7.10;0.57;;;9.50;99.90;;;;;;4776342;29;20679;-56
2022/10/23 03:21:32;;;;;;;1.48;0.30;;;9.50;99.90;;;;;;4791210;29;20185;-56
2022/10/23 03:24:00;;;;;;;0.38;0.38;;;9.60;99.90;;;;;;4805754;29;20057;-56
2022/10/23 03:26:33;;;;;;;0.90;0.28;;;9.60;99.90;;;;;;4789468;29;20053;-55
2022/10/23 03:29:01;;;;;;;1.92;0.40;;;9.60;99.90;;;;;;4791248;29;20826;-55
2022/10/23 03:31:27;;;;;;;1.75;0.40;;;9.60;99.90;;;;;;4804931;29;20042;-57
2022/10/23 03:33:58;;;;;;;0.40;0.40;;;9.60;99.90;;;;;;4789567;29;20041;-56
2022/10/23 03:36:26;;;;;;;0.63;0.40;;;9.70;99.90;;;;;;4805188;29;20121;-55
2022/10/23 03:38:53;;;;;;;6.35;0.63;;;9.70;99.90;;;;;;4803819;29;20041;-55
2022/10/23 03:41:21;;;;;;;1.45;0.40;;;9.70;99.90;;;;;;4792757;29;20172;-56
2022/10/23 03:43:48;;;;;;;6.15;0.30;;;9.70;99.90;;;;;;4788978;29;20220;-54
2022/10/23 03:46:15;;;;;;;1.98;0.43;;;9.70;99.90;;;;;;4804046;29;20049;-55
2022/10/23 03:48:42;;;;;;;0.55;0.30;;;9.70;99.90;;;;;;4791783;29;20076;-54
2022/10/23 03:51:10;;;;;;;1.77;0.70;;;9.80;99.90;;;;;;4781790;29;20498;-56
2022/10/23 03:53:39;;;;;;;9.02;0.57;;;9.70;99.90;;;;;;4804155;29;20214;-55
2022/10/23 03:56:06;;;;;;;3.13;0.40;;;9.70;99.90;;;;;;4781697;29;20049;-56
2022/10/23 03:58:33;;;;;;;3.67;0.50;;;9.70;99.90;;;;;;4804832;29;20566;-55
2022/10/23 04:01:01;;;;;;;4.57;0.70;;;9.70;99.90;;;;;;4789452;29;20362;-55
2022/10/23 04:03:28;;;;;;;2.17;0.60;;;9.70;99.90;;;;;;4769690;29;20101;-57
2022/10/23 04:05:55;;;;;;;32.85;2.47;;;9.70;99.90;;;;;;4791447;29;20105;-55
2022/10/23 04:08:22;;;;;;;13.25;0.60;;;9.70;99.90;;;;;;4791103;29;20103;-55
2022/10/23 04:10:53;;;;;;;0.47;0.40;;;9.70;99.90;;;;;;4790291;29;20049;-56
2022/10/23 04:13:30;;;;;;;0.40;0.40;;;9.80;99.90;;;;;;4788804;29;20156;-55
2022/10/23 04:15:57;;;;;;;2.40;0.50;;;9.80;99.90;;;;;;4789150;29;20221;-55
2022/10/23 04:18:24;;;;;;;;;;;9.80;99.90;;;;;;4791827;29;20060;-56
2022/10/23 04:20:51;;;;;;;2.20;0.40;;;9.80;99.90;;;;;;4804587;29;20103;-56
2022/10/23 04:23:18;;;;;;;1.13;0.50;;;9.80;99.90;;;;;;4790534;29;20041;-56
2022/10/23 04:25:46;;;;;;;2.85;0.30;;;9.80;99.90;;;;;;4789694;29;20113;-55
2022/10/23 04:28:22;;;;;;;0.52;0.30;;;9.80;99.90;;;;;;4803609;29;20080;-56
2022/10/23 04:30:50;;;;;;;1.08;0.43;;;9.80;99.90;;;;;;4804290;29;20046;-55
2022/10/23 04:33:17;;;;;;;5.68;0.57;;;9.80;99.90;;;;;;4788718;29;20134;-55
2022/10/23 04:35:47;;;;;;;2.90;0.68;;;9.80;99.90;;;;;;4804420;29;20053;-55
2022/10/23 04:38:15;;;;;;;0.70;0.50;;;9.80;99.90;;;;;;4790326;29;20057;-55
2022/10/23 04:40:43;;;;;;;0.60;0.35;;;9.80;99.90;;;;;;4803780;29;20471;-56
2022/10/23 04:43:10;;;;;;;4.45;0.70;;;9.80;99.90;;;;;;4789609;29;20551;-54
2022/10/23 04:45:38;;;;;;;0.60;0.50;;;9.80;99.90;;;;;;4788295;29;20441;-55
2022/10/23 04:48:05;;;;;;;0.47;0.20;;;9.80;99.90;;;;;;4790024;29;20057;-57
2022/10/23 04:51:03;;;;;;;5.00;0.63;;;9.80;99.90;;;;;;4774855;29;20054;-55
2022/10/23 04:53:53;;;;;;;1.88;0.40;;;9.70;99.90;;;;;;4780560;29;20061;-55
2022/10/23 04:56:40;;;;;;;9.65;0.60;;;9.70;99.90;;;;;;4778447;29;20395;-56
2022/10/23 04:59:12;;;;;;;1.33;0.50;;;9.70;99.90;;;;;;4803061;29;20359;-56
2022/10/23 05:01:41;;;;;;;7.03;0.60;;;9.60;99.90;;;;;;4786804;29;20383;-55
2022/10/23 05:04:08;;;;;;;6.28;0.60;;;9.60;99.90;;;;;;4771609;29;20272;-56
2022/10/23 05:06:55;;;;;;;1.08;0.63;;;9.60;99.90;;;;;;4801891;29;20629;-55
2022/10/23 05:09:55;;;;;;;3.72;0.40;;;9.50;99.90;;;;;;4764205;29;20054;-55
2022/10/23 05:12:29;;;;;;;6.50;0.40;;;9.40;99.90;;;;;;4787377;29;20353;-55
2022/10/23 05:14:56;;;;;;;;;;;9.40;99.90;;;;;;4789446;29;20045;-55
2022/10/23 05:17:33;;;;;;;0.90;0.47;;;9.40;99.90;;;;;;4789995;29;19924;-56
2022/10/23 05:20:05;;;;;;;14.32;0.90;;;9.30;99.90;;;;;;4789131;29;20835;-55
2022/10/23 05:22:36;;;;;;;1.95;0.43;;;9.30;99.90;;;;;;4790375;29;20041;-55
2022/10/23 05:25:09;;;;;;;4.35;0.50;;;9.30;99.90;;;;;;4788196;29;20053;-55
2022/10/23 05:27:36;;;;;;;3.22;0.55;;;9.30;99.90;;;;;;4774180;29;20057;-55
2022/10/23 05:30:08;;;;;;;1.77;0.40;;;9.20;99.90;;;;;;4826491;29;20125;-55
2022/10/23 05:32:37;;;;;;;0.73;0.47;;;9.20;99.90;;;;;;4795497;29;20174;-55
2022/10/23 05:35:10;;;;;;;2.28;0.40;;;9.20;99.90;;;;;;4788550;29;20190;-55
2022/10/23 05:37:40;;;;;;;7.50;0.45;;;9.20;99.90;;;;;;4788740;29;20081;-55
2022/10/23 05:40:16;;;;;;;1.45;0.43;;;9.20;99.90;;;;;;4781680;29;20052;-55
2022/10/23 05:42:44;;;;;;;2.95;0.40;;;9.10;99.90;;;;;;4820911;29;20049;-55
2022/10/23 05:45:15;;;;;;;12.70;0.60;;;9.10;99.90;;;;;;4788427;29;20041;-55
2022/10/23 05:48:01;;;;;;;1.75;0.50;;;9.10;99.90;;;;;;4786292;29;20131;-56
2022/10/23 05:51:03;;;;;;;4.63;0.50;;;9.10;99.90;;;;;;4794919;29;20060;-56
2022/10/23 05:53:48;;;;;;;6.95;0.68;;;9.00;99.90;;;;;;4776389;29;20168;-56
2022/10/23 05:56:41;;;;;;;2.65;0.52;;;9.10;99.90;;;;;;4780300;29;20094;-55
2022/10/23 05:59:31;;;;;;;7.40;0.60;;;9.10;99.90;;;;;;4809477;29;20060;-54
2022/10/23 06:02:21;;;;;;;2.65;0.55;;;9.10;99.90;;;;;;4800237;29;20763;-53
2022/10/23 06:04:54;;;;;;;3.25;0.38;;;9.10;99.90;;;;;;4790829;29;20638;-52
2022/10/23 06:07:27;;;;;;;0.55;0.55;;;9.10;99.90;;;;;;4806361;29;20049;-55
2022/10/23 06:09:59;;;;;;;2.72;0.40;;;9.20;99.90;;;;;;4845762;29;20850;-54
2022/10/23 06:12:26;;;;;;;2.15;0.77;;;9.20;99.90;;;;;;4797750;29;20367;-55
2022/10/23 06:14:53;;;;;;;0.52;0.50;;;9.20;99.90;;;;;;4783799;29;20896;-55
2022/10/23 06:17:28;;;;;;;1.42;0.68;;;9.20;99.90;;;;;;4807550;29;20053;-55
2022/10/23 06:20:01;;;;;;;4.32;0.70;;;9.20;99.90;;;;;;4805864;29;20563;-55
2022/10/23 06:22:33;;;;;;;2.85;0.55;;;9.30;99.90;;;;;;4791835;29;20080;-54
2022/10/23 06:25:14;;;;;;;3.60;0.68;;;9.40;99.90;;;;;;4806072;29;20321;-56
2022/10/23 06:27:42;;;;;;;2.08;0.65;;;9.60;99.90;;;;;;4791571;29;20709;-54
2022/10/23 06:30:11;;;;;;;3.30;0.50;;;9.80;99.90;;;;;;4791077;29;20209;-55
2022/10/23 06:32:38;;;;;;;5.10;0.50;;;10.00;99.90;;;;;;4789686;29;20566;-53
2022/10/23 06:35:10;;;;;;;1.42;0.40;;;10.20;99.90;;;;;;4806400;29;20054;-54
2022/10/23 06:37:38;;;;;;;1.30;0.65;;;10.30;99.90;;;;;;4789836;29;20061;-53
2022/10/23 06:40:10;;;;;;;6.68;0.80;;;10.30;99.90;;;;;;4789871;29;20045;-54
2022/10/23 06:42:57;;;;;;;2.72;1.10;;;10.30;99.90;;;;;;4803232;29;20434;-58
2022/10/23 06:45:55;;;;;;;6.18;1.35;;;10.40;99.90;;;;;;4774607;29;20586;-55
2022/10/23 06:48:42;;;;;;;3.53;1.33;;;10.50;99.90;;;;;;4803689;29;20299;-54
2022/10/23 06:51:16;;;;;;;1.15;0.70;;;10.70;99.90;;;;;;4781611;29;20049;-55
2022/10/23 06:53:44;;;;;;;0.88;0.47;;;10.90;99.90;;;;;;4790557;29;20213;-54
2022/10/23 06:56:31;;;;;;;;;;;11.20;99.90;;;;;;4790608;29;20450;-54
2022/10/23 06:59:00;;;;;;;3.83;0.82;;;11.50;99.90;;;;;;4805956;29;20091;-55
2022/10/23 07:01:29;;;;;;;2.28;0.63;;;11.80;99.90;;;;;;4790720;29;20072;-54
2022/10/23 07:03:56;;;;;;;1.63;0.80;;;11.90;99.90;;;;;;4788820;29;20061;-54
2022/10/23 07:06:25;;;;;;;2.40;0.70;;;12.10;99.90;;;;;;4782121;29;20294;-53
2022/10/23 07:08:53;;;;;;;8.45;0.77;;;12.20;99.90;;;;;;4812499;29;20201;-54
2022/10/23 07:11:42;;;;;;;2.33;0.90;;;12.30;99.90;;;;;;4801872;29;20709;-53
2022/10/23 07:14:10;;;;;;;4.07;0.50;;;12.50;99.90;;;;;;4791279;29;20242;-55
2022/10/23 07:16:37;;;;;;;5.35;0.45;;;12.70;99.90;;;;;;4784044;29;20398;-54
2022/10/23 07:19:05;;;;;;;6.85;0.60;;;12.90;99.90;;;;;;4792637;29;20386;-53
2022/10/23 07:21:51;;;;;;;1.95;0.60;;;13.20;99.90;;;;;;4788254;29;20168;-54
2022/10/23 07:24:31;;;;;;;2.47;1.17;;;13.40;99.90;;;;;;4793640;29;20250;-55
2022/10/23 07:27:00;;;;;;;3.25;0.60;;;13.70;99.90;;;;;;4789458;29;20440;-54
2022/10/23 07:29:29;;;;;;;2.05;1.40;;;14.00;99.90;;;;;;4790056;29;20045;-54
2022/10/23 07:31:56;;;;;;;2.85;1.50;;;14.20;99.90;;;;;;4774779;29;20277;-57
2022/10/23 07:34:44;;;;;;;2.28;1.40;;;14.30;99.90;;;;;;4790140;29;20677;-56
2022/10/23 07:37:40;;;;;;;28.70;2.58;;;14.50;99.90;;;;;;4784562;29;20551;-55
2022/10/23 07:40:08;;;;;;;2.67;1.17;;;14.70;99.90;;;;;;4826843;29;20128;-56
2022/10/23 07:42:42;;;;;;;2.75;1.73;;;14.80;99.90;;;;;;4838052;29;20045;-53
2022/10/23 07:45:10;;;;;;;7.32;1.60;;;15.10;99.90;;;;;;4792289;29;20463;-55
2022/10/23 07:47:39;;;;;;;2.63;1.10;;;15.30;99.90;;;;;;4796636;29;20336;-55
2022/10/23 07:50:08;;;;;;;6.50;1.38;;;15.50;99.90;;;;;;4807084;29;20042;-56
2022/10/23 07:52:35;;;;;;;4.10;1.20;;;15.60;99.90;;;;;;4790312;29;20133;-55
2022/10/23 07:55:09;;;;;;;7.68;1.17;;;15.80;99.90;;;;;;4776010;29;20758;-56
2022/10/23 07:57:43;;;;;;;5.10;1.10;;;16.10;99.90;;;;;;4805527;29;20057;-55
2022/10/23 08:00:20;;;;;;;;;;;16.40;99.90;;;;;;4789104;29;20770;-56
2022/10/23 08:02:55;;;;;;;10.55;1.10;;;16.60;99.90;;;;;;4785873;29;20396;-55
2022/10/23 08:05:23;;;;;;;4.55;1.20;;;16.90;99.90;;;;;;4788773;29;20042;-58
2022/10/23 08:07:56;;;;;;;3.38;1.25;;;17.00;99.90;;;;;;4776838;29;20093;-56
2022/10/23 08:10:23;;;;;;;8.73;1.17;;;17.30;99.90;;;;;;4805918;29;20327;-56
2022/10/23 08:12:51;;;;;;;2.60;1.52;;;17.70;99.90;;;;;;4804856;29;20365;-57
2022/10/23 08:15:23;;;;;;;5.47;1.50;;;18.00;99.90;;;;;;4806182;29;20065;-56
2022/10/23 08:17:55;;;;;;;17.23;1.73;;;18.20;99.90;;;;;;4784690;29;20053;-57
2022/10/23 08:20:39;;;;;;;7.63;1.38;;;18.40;99.90;;;;;;4789533;29;20243;-56
2022/10/23 08:23:09;;;;;;;10.23;1.70;;;18.50;99.90;;;;;;4805230;29;20060;-57
2022/10/23 08:25:36;;;;;;;7.20;1.58;;;18.70;99.90;;;;;;4830658;29;20057;-55
2022/10/23 08:28:04;;;;;;;5.82;1.15;;;19.10;99.90;;;;;;4809832;29;20523;-57
2022/10/23 08:30:39;;;;;;;5.67;1.50;;;19.30;99.90;;;;;;4790510;29;20586;-58
2022/10/23 08:33:06;;;;;;;19.70;1.90;;;19.50;99.90;;;;;;4773073;29;20156;-56
2022/10/23 08:35:37;;;;;;;6.78;1.40;;;19.70;99.90;;;;;;4773960;29;20124;-57
2022/10/23 08:38:06;;;;;;;3.40;1.30;;;19.90;99.90;;;;;;4778557;29;20249;-58
2022/10/23 08:40:43;;;;;;;7.88;1.35;;;20.20;99.90;;;;;;4790558;29;20565;-56
2022/10/23 08:43:46;;;;;;;3.22;1.25;;;20.40;99.90;;;;;;4772766;29;20690;-55
2022/10/23 08:46:36;;;;;;;3.40;1.15;;;20.40;97.50;;;;;;4780790;29;20740;-57
2022/10/23 08:49:37;;;;;;;2.45;1.10;;;20.40;97.90;;;;;;4792180;29;20446;-57
2022/10/23 08:52:23;;;;;;;2.05;1.10;;;20.30;98.10;;;;;;4773575;29;20045;-56
2022/10/23 08:54:57;;;;;;;4.90;1.15;;;20.20;98.80;;;;;;4788958;29;20049;-54
2022/10/23 08:57:33;;;;;;;10.55;1.58;;;19.90;99.50;;;;;;4791904;29;20049;-55
2022/10/23 09:00:07;;;;;;;2.88;1.25;;;19.70;99.30;;;;;;4791212;29;20366;-57
2022/10/23 09:02:50;;;;;;;2.25;1.08;;;19.50;99.90;;;;;;4804082;29;20538;-57
2022/10/23 09:05:35;;;;;;;2.20;1.02;;;19.40;99.90;;;;;;4787931;29;20562;-56
2022/10/23 09:08:34;;;;;;;7.78;1.98;;;19.50;99.90;;;;;;4790353;29;20053;-57
2022/10/23 09:11:02;;;;;;;9.73;3.67;;;19.70;99.90;;;;;;4793696;29;20148;-57
2022/10/23 09:13:44;;;;;;;2.97;1.35;;;19.90;99.90;;;;;;4790625;29;20045;-57
2022/10/23 09:16:33;;;;;;;3.13;1.35;;;20.10;99.90;;;;;;4791558;29;20030;-56
2022/10/23 09:19:01;;;;;;;3.15;1.48;;;20.30;99.90;;;;;;4790970;29;20062;-56
2022/10/23 09:21:28;;;;;;;1.77;1.13;;;20.60;99.90;;;;;;4788966;29;20045;-56
2022/10/23 09:23:56;;;;;;;6.57;1.23;;;20.60;99.50;;;;;;4791124;29;20794;-56
2022/10/23 09:26:23;;;;;;;7.93;1.70;;;20.70;99.90;;;;;;4774162;29;20045;-56
2022/10/23 09:29:17;;;;;;;13.20;1.73;;;20.70;99.00;;;;;;4790232;29;20045;-57
2022/10/23 09:31:56;;;;;;;3.60;1.02;;;20.60;98.20;;;;;;4790843;29;20053;-57
2022/10/23 09:34:28;;;;;;;3.60;1.10;;;20.50;97.70;;;;;;4774288;29;20053;-56
2022/10/23 09:36:59;;;;;;;5.03;1.35;;;20.40;98.20;;;;;;4790706;29;20417;-57
2022/10/23 09:39:31;;;;;;;1.30;1.00;;;20.30;97.90;;;;;;4789602;29;20060;-57
2022/10/23 09:42:01;;;;;;;6.38;1.45;;;20.10;99.30;;;;;;4804799;29;20050;-57
2022/10/23 09:44:31;;;;;;;2.88;1.20;;;20.00;99.90;;;;;;4790260;29;20210;-57
2022/10/23 09:47:05;;;;;;;2.25;1.25;;;19.80;99.90;;;;;;4794269;29;20048;-57
2022/10/23 09:49:33;;;;;;;7.72;1.50;;;19.50;99.90;;;;;;4791684;29;20366;-57
2022/10/23 09:52:02;;;;;;;6.25;1.58;;;19.40;99.90;;;;;;4791324;29;20052;-55
2022/10/23 09:54:33;;;;;;;6.43;1.75;;;19.30;99.90;;;;;;4791630;29;20213;-56
2022/10/23 09:57:24;;;;;;;2.40;1.40;;;19.10;99.90;;;;;;4790280;29;20401;-56
2022/10/23 09:59:54;;;;;;;2.05;1.27;;;19.10;99.90;;;;;;4772982;29;20229;-56
2022/10/23 10:02:32;;;;;;;8.00;2.33;;;19.00;99.90;;;;;;4790468;29;20142;-57
2022/10/23 10:05:36;;;;;;;4.07;1.70;;;19.00;99.90;;;;;;4804476;29;20171;-57
2022/10/23 10:08:23;;;;;;;25.08;9.90;;;19.10;99.90;;;;;;4788865;29;20045;-57
2022/10/23 10:11:00;;;;;;;21.38;8.00;;;19.20;99.90;;;;;;4790430;29;20837;-57
2022/10/23 10:13:35;;;;;;;4.60;2.00;;;19.30;99.90;;;;;;4788666;29;20052;-56
2022/10/23 10:16:08;;;;;;;2.20;1.50;;;19.40;99.90;;;;;;4803960;29;20133;-57
2022/10/23 10:18:44;;;;;;;3.13;0.77;;;19.50;99.90;;;;;;4788941;29;20080;-57
2022/10/23 10:21:24;;;;;;;3.22;1.00;;;19.60;99.90;;;;;;4801946;29;20044;-56
2022/10/23 10:24:20;;;;;;;4.47;1.40;;;19.80;99.90;;;;;;4771555;29;20837;-56
2022/10/23 10:26:54;;;;;;;3.47;1.30;;;20.10;99.90;;;;;;4788641;29;20845;-56
2022/10/23 10:29:28;;;;;;;5.32;1.38;;;20.20;99.90;;;;;;4788617;29;20049;-57
2022/10/23 10:32:20;;;;;;;3.38;1.42;;;20.50;99.90;;;;;;4788604;29;20061;-56
2022/10/23 10:35:07;;;;;;;2.85;1.40;;;20.80;99.90;;;;;;4790791;29;20583;-55
2022/10/23 10:38:06;;;;;;;1.60;0.90;;;21.00;99.90;;;;;;4790521;29;20057;-57
2022/10/23 10:40:39;;;;;;;3.42;1.10;;;21.20;99.90;;;;;;4790667;29;20563;-57
2022/10/23 10:43:41;;;;;;;1.40;0.70;;;21.60;99.90;;;;;;4791513;29;20077;-56
2022/10/23 10:46:31;;;;;;;1.17;1.00;;;21.90;98.10;;;;;;4789340;29;20511;-57
2022/10/23 10:49:11;;;;;;;1.85;0.85;;;22.30;99.20;;;;;;4792153;29;20193;-56
2022/10/23 10:52:14;;;;;;;0.75;0.75;;;22.70;97.10;;;;;;4774775;29;20053;-57
2022/10/23 10:55:02;;;;;;;0.60;0.60;;;23.00;96.30;;;;;;4790032;29;20053;-57
2022/10/23 10:57:33;;;;;;;3.15;1.45;;;23.30;93.80;;;;;;4791580;29;20994;-55
2022/10/23 11:00:11;;;;;;;3.25;1.58;;;23.60;92.80;;;;;;4791041;29;20045;-56
2022/10/23 11:02:52;;;;;;;7.78;0.93;;;23.80;92.70;;;;;;4791559;29;20049;-57
2022/10/23 11:05:41;;;;;;;2.65;0.93;;;24.00;89.10;;;;;;4789247;29;20257;-57
2022/10/23 11:08:17;;;;;;;4.80;1.08;;;24.10;88.10;;;;;;4790007;29;20826;-56
2022/10/23 11:10:46;;;;;;;2.80;1.13;;;24.20;87.10;;;;;;4805290;29;20084;-57
2022/10/23 11:13:34;;;;;;;1.10;0.82;;;24.30;87.30;;;;;;4804633;29;20110;-57
2022/10/23 11:16:04;;;;;;;;;;;24.50;88.10;;;;;;4791644;29;20190;-56
2022/10/23 11:18:32;;;;;;;1.23;1.00;;;24.50;84.80;;;;;;4779644;29;19951;-57
2022/10/23 11:21:24;;;;;;;2.70;0.80;;;24.50;82.80;;;;;;4774976;29;20186;-57
2022/10/23 11:24:22;;;;;;;1.42;1.00;;;24.50;81.40;;;;;;4803579;29;20042;-57
2022/10/23 11:27:00;;;;;;;;;;;24.40;77.80;;;;;;4787764;29;20060;-56
2022/10/23 11:29:59;;;;;;;4.88;1.13;;;24.40;80.60;;;;;;4788971;29;19924;-57
2022/10/23 11:32:53;;;;;;;2.42;0.80;;;24.30;81.80;;;;;;4774285;29;20574;-56
2022/10/23 11:35:32;;;;;;;4.88;0.80;;;24.30;78.50;;;;;;4773425;29;20329;-56
2022/10/23 11:38:30;;;;;;;8.50;1.35;;;24.30;81.20;;;;;;4790529;29;20064;-56
2022/10/23 11:41:15;;;;;;;2.08;0.95;;;24.40;84.20;;;;;;4787018;29;20065;-57
2022/10/23 11:44:00;;;;;;;3.15;0.95;;;24.40;84.60;;;;;;4790559;29;20369;-55
2022/10/23 11:46:34;;;;;;;2.83;1.25;;;24.30;83.60;;;;;;4792138;29;20820;-56
2022/10/23 11:49:04;;;;;;;5.97;0.90;;;24.10;85.20;;;;;;4790586;29;20045;-56
2022/10/23 11:51:36;;;;;;;1.40;0.82;;;24.00;88.30;;;;;;4792701;29;20048;-59
2022/10/23 11:54:12;;;;;;;1.85;1.00;;;23.70;91.40;;;;;;4805367;29;20386;-56
2022/10/23 11:57:16;;;;;;;6.27;1.10;;;23.50;94.80;;;;;;4792530;29;20061;-61
2022/10/23 11:59:49;;;;;;;1.27;0.80;;;23.30;96.70;;;;;;4792743;29;20913;-57
2022/10/23 12:02:31;;;;;;;2.03;1.02;;;23.00;99.60;;;;;;4783744;29;20262;-56
2022/10/23 12:05:27;;;;;;;5.82;1.27;;;22.70;99.90;;;;;;4792005;29;20052;-57
2022/10/23 12:07:56;;;;;;;1.30;0.93;;;22.40;99.90;;;;;;4791438;29;20204;-59
2022/10/23 12:10:33;;;;;;;4.47;0.90;;;22.20;99.90;;;;;;4803298;29;20566;-56
2022/10/23 12:13:03;;;;;;;1.75;1.27;;;22.20;99.90;;;;;;4803761;29;20037;-56
2022/10/23 12:15:33;;;;;;;3.00;1.23;;;22.10;99.90;;;;;;4789875;29;20350;-57
2022/10/23 12:18:15;;;;;;;14.57;2.22;;;22.00;99.90;;;;;;4774791;29;20601;-57
2022/10/23 12:20:45;;;;;;;0.70;0.70;;;21.90;99.90;;;;;;4791362;29;20513;-57
2022/10/23 12:23:27;;;;;;;2.10;1.38;;;21.90;99.90;;;;;;4803871;29;20532;-56
2022/10/23 12:26:13;;;;;;;2.72;1.10;;;21.80;99.90;;;;;;4803716;29;20556;-56
2022/10/23 12:29:09;;;;;;;4.72;1.30;;;21.80;99.90;;;;;;4788816;29;20417;-56
2022/10/23 12:31:53;;;;;;;4.70;1.50;;;22.00;99.90;;;;;;4791484;29;20769;-57
2022/10/23 12:34:34;;;;;;;5.97;1.20;;;22.20;99.90;;;;;;4803396;29;20049;-56
2022/10/23 12:37:25;;;;;;;5.45;1.50;;;22.40;99.90;;;;;;4787741;29;20571;-56
2022/10/23 12:39:54;;;;;;;5.28;1.38;;;22.50;99.90;;;;;;4791544;29;20182;-61
2022/10/23 12:42:24;;;;;;;2.35;1.15;;;22.70;99.90;;;;;;4773269;29;20567;-57
2022/10/23 12:45:31;;;;;;;3.50;1.20;;;22.70;99.90;;;;;;4788395;29;20775;-57
2022/10/23 12:47:59;;;;;;;3.03;1.02;;;22.70;99.90;;;;;;4774176;29;20163;-59
2022/10/23 12:50:29;;;;;;;1.02;0.90;;;22.70;99.90;;;;;;4790798;29;20037;-60
2022/10/23 12:52:59;;;;;;;1.75;0.88;;;22.60;99.90;;;;;;4803199;29;20464;-59
2022/10/23 12:55:57;;;;;;;4.75;0.93;;;22.50;99.90;;;;;;4789169;29;20069;-60
2022/10/23 12:58:34;;;;;;;12.88;1.45;;;22.30;99.90;;;;;;4791266;29;20165;-60
2022/10/23 13:01:05;;;;;;;8.50;2.22;;;22.20;99.90;;;;;;4789321;29;20089;-61
2022/10/23 13:03:33;;;;;;;5.47;1.75;;;22.10;99.90;;;;;;4790402;29;20053;-60
2022/10/23 13:06:02;;;;;;;4.03;1.23;;;21.90;99.90;;;;;;4790744;29;20551;-59
2022/10/23 13:08:39;;;;;;;3.95;1.20;;;21.80;99.90;;;;;;4790658;29;20056;-59
2022/10/23 13:11:26;;;;;;;1.48;1.38;;;21.60;99.90;;;;;;4801042;29;20126;-61
2022/10/23 13:13:57;;;;;;;5.55;1.27;;;21.30;99.90;;;;;;4804839;29;20053;-59
2022/10/23 13:16:25;;;;;;;1.02;0.93;;;21.10;99.90;;;;;;4790823;29;20358;-65
2022/10/23 13:18:53;;;;;;;1.60;1.05;;;20.90;99.90;;;;;;4789699;29;20061;-58
2022/10/23 13:21:28;;;;;;;2.13;1.35;;;20.80;99.90;;;;;;4790491;29;20061;-57
2022/10/23 13:23:55;;;;;;;4.05;0.80;;;20.60;99.90;;;;;;4789367;29;20037;-58
2022/10/23 13:26:43;;;;;;;5.57;1.30;;;20.40;99.90;;;;;;4784737;29;20068;-55
2022/10/23 13:29:24;;;;;;;3.67;1.15;;;20.30;99.90;;;;;;4791363;29;20852;-56
2022/10/23 13:31:57;;;;;;;8.13;1.67;;;20.00;99.90;;;;;;4790255;29;20782;-55
2022/10/23 13:34:26;;;;;;;10.13;2.17;;;19.90;99.90;;;;;;4780323;29;20115;-56
2022/10/23 13:37:20;;;;;;;4.03;1.75;;;19.80;99.90;;;;;;4792572;29;20407;-56
2022/10/23 13:40:03;;;;;;;2.53;2.00;;;19.60;99.90;;;;;;4803294;29;20046;-56